Stony Rapids Airport
CYSF : now visible

Airfield :











YOU CAN JOIN US ON...

 
LOGIN :

Register | Disclaimer

   EN    FR    IT 

 









Legend :    VFR   Marginal VFR   IFR   Intensive IFR   Very Intensive IFR
Visi :
Ceiling :
>= 8 km
>= 3000ft
5 to 8 km
1000 to 3000 ft
1500m to 5 km
500 to 1000 ft
800 to 1500m
200 to 500 ft
< 800m
< 200 ft
Symbols :   Thunderstorms  Fog  Heavy snow  Heavy precipitations  Wind > 20 kt







- Airport Elevation : 805 ft
- IATA code : YSF


CYSF - Stony Rapids

CURRENT METAR :
  • 202000Z AUTO 28009G15KT 9SM CLR 08/M02 A2987 RMK SLP132

EXPIRED METARs :
  • 201900Z AUTO 29009KT 9SM CLR 07/M02 A2985 RMK SLP124
  • 201800Z AUTO 26008KT 9SM CLR 05/M03 A2984 RMK SLP122

TAF TAF CYSF
Valid from the 20 at 18:00 until the 21 at 06:00 UTC


201738Z 2018/2106 30010KT P6SM SKC RMK FCST BASED ON AUTO OBS. NXT FCST BY 210000Z
CZEG FIR / North America



MET'MAP, your aeronautical weather chart ! - Copyright ORBIFLY December 2007 - Disclaimer

ORBIFLY MET'MAP TEAM :

Programming & Development : Alexandra Zaïnal
Concept & Development : Baudouin d'Aumeries
Co-Development & Prog : Marc-Olivier Méhu
Technical & hardware support : Manuel Goepfert

Contact : metmap@orbifly.com




SOURCES & CREDITS :

   NOAA       Earth
Advisory